createdAt,value
2023-03-18T00:06:38.157Z,16.40
2023-03-18T00:21:42.637Z,16.10
2023-03-18T00:36:50.778Z,16.00
2023-03-18T00:51:55.182Z,15.80
2023-03-18T01:06:59.712Z,16.00
2023-03-18T01:22:05.476Z,15.30
2023-03-18T01:37:16.300Z,15.30
2023-03-18T01:52:28.063Z,15.40
2023-03-18T02:07:35.133Z,15.80
2023-03-18T02:22:43.430Z,16.00
2023-03-18T02:37:48.622Z,16.10
2023-03-18T02:52:54.839Z,16.20
2023-03-18T03:08:01.319Z,15.90
2023-03-18T03:23:11.004Z,16.10
2023-03-18T03:38:16.068Z,15.80
2023-03-18T03:53:21.544Z,16.20
2023-03-18T04:08:26.097Z,15.80
2023-03-18T04:23:31.120Z,15.40
2023-03-18T04:38:35.673Z,15.40
2023-03-18T04:53:42.564Z,15.90
2023-03-18T05:08:48.576Z,15.90
2023-03-18T05:23:53.154Z,16.00
2023-03-18T05:38:58.333Z,15.80
2023-03-18T05:54:04.784Z,15.80
2023-03-18T06:09:17.490Z,15.60
2023-03-18T06:24:23.415Z,15.60
2023-03-18T06:39:29.531Z,15.50
2023-03-18T06:54:35.150Z,14.90
2023-03-18T07:09:41.135Z,15.30
2023-03-18T07:24:46.752Z,15.00
2023-03-18T07:39:52.987Z,14.90
2023-03-18T07:54:57.618Z,14.40
2023-03-18T08:10:02.138Z,15.20
2023-03-18T08:25:07.354Z,15.20
2023-03-18T08:40:13.448Z,15.20
2023-03-18T08:55:17.991Z,16.00
2023-03-18T09:10:22.721Z,15.90
2023-03-18T09:25:27.299Z,16.00
2023-03-18T09:40:35.824Z,16.20
2023-03-18T09:55:46.940Z,16.20
2023-03-18T10:10:51.561Z,16.20
2023-03-18T10:26:00.134Z,16.90
2023-03-18T10:41:15.478Z,16.50
2023-03-18T10:56:20.133Z,16.90
2023-03-18T11:11:28.922Z,17.10
2023-03-18T11:26:48.157Z,17.60
2023-03-18T11:41:53.997Z,18.20
2023-03-18T11:57:01.468Z,18.20
2023-03-18T12:12:19.657Z,18.60
2023-03-18T12:27:34.789Z,18.60
2023-03-18T12:42:54.569Z,18.40
2023-03-18T12:58:03.530Z,18.20
2023-03-18T13:13:10.557Z,18.00
2023-03-18T13:28:44.308Z,17.80
2023-03-18T13:43:51.718Z,18.00
2023-03-18T13:58:56.193Z,17.70
2023-03-18T14:14:02.998Z,18.40
2023-03-18T14:29:25.911Z,20.80
2023-03-18T14:44:41.040Z,19.80
2023-03-18T14:59:45.592Z,18.90
2023-03-18T15:14:51.408Z,18.80
2023-03-18T15:29:57.735Z,23.60
2023-03-18T15:45:06.133Z,22.20
2023-03-18T16:00:13.287Z,21.90
2023-03-18T16:15:22.096Z,18.50
2023-03-18T16:30:29.702Z,19.60
2023-03-18T16:45:35.225Z,20.80
2023-03-18T17:00:39.981Z,19.40
2023-03-18T17:15:44.918Z,18.90
2023-03-18T17:30:49.650Z,18.50
2023-03-18T17:45:54.206Z,18.00
2023-03-18T18:01:05.551Z,17.70
2023-03-18T18:16:10.822Z,17.70
2023-03-18T18:31:17.435Z,17.80
2023-03-18T18:46:21.984Z,17.70
2023-03-18T19:01:26.698Z,17.30
2023-03-18T19:16:33.416Z,17.10
2023-03-18T19:31:39.872Z,17.30
2023-03-18T19:46:45.294Z,16.60
2023-03-18T20:01:50.562Z,17.40
2023-03-18T20:16:55.625Z,17.00
2023-03-18T20:32:00.070Z,17.30
2023-03-18T20:47:04.602Z,16.90
2023-03-18T21:02:28.204Z,16.60
2023-03-18T21:17:32.623Z,16.30
2023-03-18T21:32:38.686Z,16.20
2023-03-18T21:47:43.419Z,16.30
2023-03-18T22:02:48.731Z,16.30
2023-03-18T22:17:53.757Z,16.30
2023-03-18T22:32:59.089Z,16.50
2023-03-18T22:48:05.025Z,16.60
2023-03-18T23:03:14.712Z,16.60
2023-03-18T23:18:19.756Z,16.20
2023-03-18T23:33:24.116Z,16.20
2023-03-18T23:48:28.592Z,15.90
